sensor_id;sensor_type;location;lat;lon;timestamp;P1;P2;P0
71872;PMS5003;59745;52.924;-2.388;2022-07-11T00:03:00;6;6;
71872;PMS5003;59745;52.924;-2.388;2022-07-11T00:05:25;9;8;
71872;PMS5003;59745;52.924;-2.388;2022-07-11T00:07:49;8;8;
71872;PMS5003;59745;52.924;-2.388;2022-07-11T00:10:14;10;9;
71872;PMS5003;59745;52.924;-2.388;2022-07-11T00:12:39;5;5;
71872;PMS5003;59745;52.924;-2.388;2022-07-11T00:15:05;7;7;
71872;PMS5003;59745;52.924;-2.388;2022-07-11T00:17:30;7;7;
71872;PMS5003;59745;52.924;-2.388;2022-07-11T00:19:55;7;7;
71872;PMS5003;59745;52.924;-2.388;2022-07-11T00:22:20;8;7;
71872;PMS5003;59745;52.924;-2.388;2022-07-11T00:24:45;10;9;
71872;PMS5003;59745;52.924;-2.388;2022-07-11T00:27:10;7;6;
71872;PMS5003;59745;52.924;-2.388;2022-07-11T00:29:35;8;8;
71872;PMS5003;59745;52.924;-2.388;2022-07-11T00:32:01;7;7;
71872;PMS5003;59745;52.924;-2.388;2022-07-11T00:34:26;10;9;
71872;PMS5003;59745;52.924;-2.388;2022-07-11T00:36:51;12;9;
71872;PMS5003;59745;52.924;-2.388;2022-07-11T00:39:16;7;7;
71872;PMS5003;59745;52.924;-2.388;2022-07-11T00:41:41;9;7;
71872;PMS5003;59745;52.924;-2.388;2022-07-11T00:44:06;11;10;
71872;PMS5003;59745;52.924;-2.388;2022-07-11T00:46:31;5;5;
71872;PMS5003;59745;52.924;-2.388;2022-07-11T00:48:57;7;7;
71872;PMS5003;59745;52.924;-2.388;2022-07-11T00:51:22;6;6;
71872;PMS5003;59745;52.924;-2.388;2022-07-11T00:53:47;7;7;
71872;PMS5003;59745;52.924;-2.388;2022-07-11T00:56:12;5;5;
71872;PMS5003;59745;52.924;-2.388;2022-07-11T00:58:37;5;5;
71872;PMS5003;59745;52.924;-2.388;2022-07-11T01:01:02;5;5;
71872;PMS5003;59745;52.924;-2.388;2022-07-11T01:03:27;7;6;
71872;PMS5003;59745;52.924;-2.388;2022-07-11T01:05:52;8;8;
71872;PMS5003;59745;52.924;-2.388;2022-07-11T01:08:17;8;7;
71872;PMS5003;59745;52.924;-2.388;2022-07-11T01:10:42;5;5;
71872;PMS5003;59745;52.924;-2.388;2022-07-11T01:13:07;6;6;
71872;PMS5003;59745;52.924;-2.388;2022-07-11T01:15:33;5;5;
71872;PMS5003;59745;52.924;-2.388;2022-07-11T01:17:58;8;7;
71872;PMS5003;59745;52.924;-2.388;2022-07-11T01:20:23;6;6;
71872;PMS5003;59745;52.924;-2.388;2022-07-11T01:22:52;7;6;
71872;PMS5003;59745;52.924;-2.388;2022-07-11T01:25:13;5;5;
71872;PMS5003;59745;52.924;-2.388;2022-07-11T01:27:38;5;5;
71872;PMS5003;59745;52.924;-2.388;2022-07-11T01:30:04;3;3;
71872;PMS5003;59745;52.924;-2.388;2022-07-11T01:32:28;4;4;
71872;PMS5003;59745;52.924;-2.388;2022-07-11T01:34:53;3;3;
71872;PMS5003;59745;52.924;-2.388;2022-07-11T01:37:19;2;2;
71872;PMS5003;59745;52.924;-2.388;2022-07-11T01:39:44;1;1;
71872;PMS5003;59745;52.924;-2.388;2022-07-11T01:42:09;3;3;
71872;PMS5003;59745;52.924;-2.388;2022-07-11T01:44:34;3;3;
71872;PMS5003;59745;52.924;-2.388;2022-07-11T01:46:59;4;3;
71872;PMS5003;59745;52.924;-2.388;2022-07-11T01:49:24;4;4;
71872;PMS5003;59745;52.924;-2.388;2022-07-11T01:51:49;5;5;
71872;PMS5003;59745;52.924;-2.388;2022-07-11T01:54:14;4;3;
71872;PMS5003;59745;52.924;-2.388;2022-07-11T01:56:39;4;4;
71872;PMS5003;59745;52.924;-2.388;2022-07-11T01:59:04;6;5;
71872;PMS5003;59745;52.924;-2.388;2022-07-11T02:01:29;6;5;
71872;PMS5003;59745;52.924;-2.388;2022-07-11T02:03:54;6;6;
71872;PMS5003;59745;52.924;-2.388;2022-07-11T02:06:20;5;4;
71872;PMS5003;59745;52.924;-2.388;2022-07-11T02:08:45;2;1;
71872;PMS5003;59745;52.924;-2.388;2022-07-11T02:11:10;5;5;
71872;PMS5003;59745;52.924;-2.388;2022-07-11T02:13:35;4;4;
71872;PMS5003;59745;52.924;-2.388;2022-07-11T02:16:00;3;3;
71872;PMS5003;59745;52.924;-2.388;2022-07-11T02:18:25;5;3;
71872;PMS5003;59745;52.924;-2.388;2022-07-11T02:20:50;7;7;
71872;PMS5003;59745;52.924;-2.388;2022-07-11T02:23:15;4;3;
71872;PMS5003;59745;52.924;-2.388;2022-07-11T02:25:40;3;3;
71872;PMS5003;59745;52.924;-2.388;2022-07-11T02:28:06;3;2;
71872;PMS5003;59745;52.924;-2.388;2022-07-11T02:30:31;3;3;
71872;PMS5003;59745;52.924;-2.388;2022-07-11T02:32:56;5;5;
71872;PMS5003;59745;52.924;-2.388;2022-07-11T02:35:21;4;4;
71872;PMS5003;59745;52.924;-2.388;2022-07-11T02:37:46;2;2;
71872;PMS5003;59745;52.924;-2.388;2022-07-11T02:40:11;4;4;
71872;PMS5003;59745;52.924;-2.388;2022-07-11T02:42:36;6;5;
71872;PMS5003;59745;52.924;-2.388;2022-07-11T02:45:01;5;5;
71872;PMS5003;59745;52.924;-2.388;2022-07-11T02:47:26;3;3;
71872;PMS5003;59745;52.924;-2.388;2022-07-11T02:49:51;3;3;
71872;PMS5003;59745;52.924;-2.388;2022-07-11T02:52:16;4;3;
71872;PMS5003;59745;52.924;-2.388;2022-07-11T02:54:42;3;3;
71872;PMS5003;59745;52.924;-2.388;2022-07-11T02:57:07;2;2;
71872;PMS5003;59745;52.924;-2.388;2022-07-11T02:59:32;3;3;
71872;PMS5003;59745;52.924;-2.388;2022-07-11T03:01:57;4;4;
71872;PMS5003;59745;52.924;-2.388;2022-07-11T03:04:22;2;2;
71872;PMS5003;59745;52.924;-2.388;2022-07-11T03:06:47;5;4;
71872;PMS5003;59745;52.924;-2.388;2022-07-11T03:09:12;3;3;
71872;PMS5003;59745;52.924;-2.388;2022-07-11T03:11:37;5;3;
71872;PMS5003;59745;52.924;-2.388;2022-07-11T03:14:02;3;3;
71872;PMS5003;59745;52.924;-2.388;2022-07-11T03:16:28;5;4;
71872;PMS5003;59745;52.924;-2.388;2022-07-11T03:18:53;4;4;
71872;PMS5003;59745;52.924;-2.388;2022-07-11T03:21:18;3;3;
71872;PMS5003;59745;52.924;-2.388;2022-07-11T03:23:43;3;3;
71872;PMS5003;59745;52.924;-2.388;2022-07-11T03:26:08;2;2;
71872;PMS5003;59745;52.924;-2.388;2022-07-11T03:28:33;4;3;
71872;PMS5003;59745;52.924;-2.388;2022-07-11T03:30:58;3;3;
71872;PMS5003;59745;52.924;-2.388;2022-07-11T03:33:23;5;5;
71872;PMS5003;59745;52.924;-2.388;2022-07-11T03:35:48;5;4;
71872;PMS5003;59745;52.924;-2.388;2022-07-11T03:38:17;5;5;
71872;PMS5003;59745;52.924;-2.388;2022-07-11T03:40:38;5;5;
71872;PMS5003;59745;52.924;-2.388;2022-07-11T03:43:04;6;6;
71872;PMS5003;59745;52.924;-2.388;2022-07-11T03:45:29;8;6;
71872;PMS5003;59745;52.924;-2.388;2022-07-11T03:47:54;5;5;
71872;PMS5003;59745;52.924;-2.388;2022-07-11T03:50:19;5;5;
71872;PMS5003;59745;52.924;-2.388;2022-07-11T03:52:44;11;10;
71872;PMS5003;59745;52.924;-2.388;2022-07-11T03:55:09;7;7;
71872;PMS5003;59745;52.924;-2.388;2022-07-11T03:57:34;6;5;
71872;PMS5003;59745;52.924;-2.388;2022-07-11T03:59:59;6;4;
71872;PMS5003;59745;52.924;-2.388;2022-07-11T04:02:24;7;7;
71872;PMS5003;59745;52.924;-2.388;2022-07-11T04:04:49;9;8;
71872;PMS5003;59745;52.924;-2.388;2022-07-11T04:07:15;7;7;
71872;PMS5003;59745;52.924;-2.388;2022-07-11T04:09:40;8;8;
71872;PMS5003;59745;52.924;-2.388;2022-07-11T04:12:05;11;11;
71872;PMS5003;59745;52.924;-2.388;2022-07-11T04:14:30;8;7;
71872;PMS5003;59745;52.924;-2.388;2022-07-11T04:16:55;5;4;
71872;PMS5003;59745;52.924;-2.388;2022-07-11T04:19:20;7;7;
71872;PMS5003;59745;52.924;-2.388;2022-07-11T04:21:45;5;5;
71872;PMS5003;59745;52.924;-2.388;2022-07-11T04:24:10;5;5;
71872;PMS5003;59745;52.924;-2.388;2022-07-11T04:26:36;9;8;
71872;PMS5003;59745;52.924;-2.388;2022-07-11T04:29:01;7;7;
71872;PMS5003;59745;52.924;-2.388;2022-07-11T04:31:27;9;8;
71872;PMS5003;59745;52.924;-2.388;2022-07-11T04:33:52;9;7;
71872;PMS5003;59745;52.924;-2.388;2022-07-11T04:36:17;9;9;
71872;PMS5003;59745;52.924;-2.388;2022-07-11T04:38:42;9;9;
71872;PMS5003;59745;52.924;-2.388;2022-07-11T04:41:07;8;7;
71872;PMS5003;59745;52.924;-2.388;2022-07-11T04:43:32;7;6;
71872;PMS5003;59745;52.924;-2.388;2022-07-11T04:45:58;4;4;
71872;PMS5003;59745;52.924;-2.388;2022-07-11T04:48:23;6;6;
71872;PMS5003;59745;52.924;-2.388;2022-07-11T04:50:48;7;7;
71872;PMS5003;59745;52.924;-2.388;2022-07-11T04:53:13;5;5;
71872;PMS5003;59745;52.924;-2.388;2022-07-11T04:55:38;6;6;
71872;PMS5003;59745;52.924;-2.388;2022-07-11T04:58:03;5;5;
71872;PMS5003;59745;52.924;-2.388;2022-07-11T05:00:28;3;3;
71872;PMS5003;59745;52.924;-2.388;2022-07-11T05:02:53;5;4;
71872;PMS5003;59745;52.924;-2.388;2022-07-11T05:05:18;5;5;
71872;PMS5003;59745;52.924;-2.388;2022-07-11T05:07:43;5;5;
71872;PMS5003;59745;52.924;-2.388;2022-07-11T05:10:09;3;3;
71872;PMS5003;59745;52.924;-2.388;2022-07-11T05:12:33;5;4;
71872;PMS5003;59745;52.924;-2.388;2022-07-11T05:14:58;5;5;
71872;PMS5003;59745;52.924;-2.388;2022-07-11T05:17:24;2;2;
71872;PMS5003;59745;52.924;-2.388;2022-07-11T05:19:49;3;3;
71872;PMS5003;59745;52.924;-2.388;2022-07-11T05:22:14;7;7;
71872;PMS5003;59745;52.924;-2.388;2022-07-11T05:24:39;6;6;
71872;PMS5003;59745;52.924;-2.388;2022-07-11T05:27:04;5;5;
71872;PMS5003;59745;52.924;-2.388;2022-07-11T05:29:29;6;5;
71872;PMS5003;59745;52.924;-2.388;2022-07-11T05:31:55;6;5;
71872;PMS5003;59745;52.924;-2.388;2022-07-11T05:34:20;5;5;
71872;PMS5003;59745;52.924;-2.388;2022-07-11T05:36:45;8;8;
71872;PMS5003;59745;52.924;-2.388;2022-07-11T05:39:10;6;6;
71872;PMS5003;59745;52.924;-2.388;2022-07-11T05:41:35;10;9;
71872;PMS5003;59745;52.924;-2.388;2022-07-11T05:44:00;7;7;
71872;PMS5003;59745;52.924;-2.388;2022-07-11T05:46:26;6;6;
71872;PMS5003;59745;52.924;-2.388;2022-07-11T05:48:52;5;5;
71872;PMS5003;59745;52.924;-2.388;2022-07-11T05:51:18;6;6;
71872;PMS5003;59745;52.924;-2.388;2022-07-11T05:53:44;10;9;
71872;PMS5003;59745;52.924;-2.388;2022-07-11T05:56:10;8;8;
71872;PMS5003;59745;52.924;-2.388;2022-07-11T05:58:35;7;7;
71872;PMS5003;59745;52.924;-2.388;2022-07-11T06:01:01;10;9;
71872;PMS5003;59745;52.924;-2.388;2022-07-11T06:03:27;9;9;
71872;PMS5003;59745;52.924;-2.388;2022-07-11T06:05:53;8;8;
71872;PMS5003;59745;52.924;-2.388;2022-07-11T06:08:19;10;9;
71872;PMS5003;59745;52.924;-2.388;2022-07-11T06:10:45;10;9;
71872;PMS5003;59745;52.924;-2.388;2022-07-11T06:13:10;9;9;
71872;PMS5003;59745;52.924;-2.388;2022-07-11T06:15:36;6;6;
71872;PMS5003;59745;52.924;-2.388;2022-07-11T06:18:02;13;13;
71872;PMS5003;59745;52.924;-2.388;2022-07-11T06:20:28;8;7;
71872;PMS5003;59745;52.924;-2.388;2022-07-11T06:22:53;9;9;
71872;PMS5003;59745;52.924;-2.388;2022-07-11T06:25:19;11;8;
71872;PMS5003;59745;52.924;-2.388;2022-07-11T06:27:45;11;11;
71872;PMS5003;59745;52.924;-2.388;2022-07-11T06:30:11;8;8;
71872;PMS5003;59745;52.924;-2.388;2022-07-11T06:32:38;7;5;
71872;PMS5003;59745;52.924;-2.388;2022-07-11T06:35:02;7;7;
71872;PMS5003;59745;52.924;-2.388;2022-07-11T06:37:28;8;7;
71872;PMS5003;59745;52.924;-2.388;2022-07-11T06:39:54;6;6;
71872;PMS5003;59745;52.924;-2.388;2022-07-11T06:42:20;8;8;
71872;PMS5003;59745;52.924;-2.388;2022-07-11T06:44:45;8;8;
71872;PMS5003;59745;52.924;-2.388;2022-07-11T06:47:11;3;3;
71872;PMS5003;59745;52.924;-2.388;2022-07-11T06:49:37;7;6;
71872;PMS5003;59745;52.924;-2.388;2022-07-11T06:52:03;7;6;
71872;PMS5003;59745;52.924;-2.388;2022-07-11T06:54:29;4;4;
71872;PMS5003;59745;52.924;-2.388;2022-07-11T06:56:54;5;5;
71872;PMS5003;59745;52.924;-2.388;2022-07-11T06:59:20;5;5;
71872;PMS5003;59745;52.924;-2.388;2022-07-11T07:01:46;8;7;
71872;PMS5003;59745;52.924;-2.388;2022-07-11T07:04:12;6;5;
71872;PMS5003;59745;52.924;-2.388;2022-07-11T07:06:38;6;5;
71872;PMS5003;59745;52.924;-2.388;2022-07-11T07:09:03;10;8;
71872;PMS5003;59745;52.924;-2.388;2022-07-11T07:11:29;4;4;
71872;PMS5003;59745;52.924;-2.388;2022-07-11T07:13:55;4;4;
71872;PMS5003;59745;52.924;-2.388;2022-07-11T07:16:21;6;5;
71872;PMS5003;59745;52.924;-2.388;2022-07-11T07:18:46;7;6;
71872;PMS5003;59745;52.924;-2.388;2022-07-11T07:21:12;4;4;
71872;PMS5003;59745;52.924;-2.388;2022-07-11T07:23:38;7;6;
71872;PMS5003;59745;52.924;-2.388;2022-07-11T07:26:04;4;3;
71872;PMS5003;59745;52.924;-2.388;2022-07-11T07:28:29;4;4;
71872;PMS5003;59745;52.924;-2.388;2022-07-11T07:30:55;6;5;
71872;PMS5003;59745;52.924;-2.388;2022-07-11T07:33:21;5;4;
71872;PMS5003;59745;52.924;-2.388;2022-07-11T07:35:47;4;4;
71872;PMS5003;59745;52.924;-2.388;2022-07-11T07:38:12;5;3;
71872;PMS5003;59745;52.924;-2.388;2022-07-11T07:40:38;5;3;
71872;PMS5003;59745;52.924;-2.388;2022-07-11T07:43:04;5;5;
71872;PMS5003;59745;52.924;-2.388;2022-07-11T07:45:30;4;4;
71872;PMS5003;59745;52.924;-2.388;2022-07-11T07:47:56;3;3;
71872;PMS5003;59745;52.924;-2.388;2022-07-11T07:50:21;3;3;
71872;PMS5003;59745;52.924;-2.388;2022-07-11T07:52:47;4;3;
71872;PMS5003;59745;52.924;-2.388;2022-07-11T07:55:13;3;3;
71872;PMS5003;59745;52.924;-2.388;2022-07-11T07:57:39;3;3;
71872;PMS5003;59745;52.924;-2.388;2022-07-11T08:00:05;2;1;
71872;PMS5003;59745;52.924;-2.388;2022-07-11T08:02:30;4;4;
71872;PMS5003;59745;52.924;-2.388;2022-07-11T08:04:56;4;3;
71872;PMS5003;59745;52.924;-2.388;2022-07-11T08:07:21;5;4;
71872;PMS5003;59745;52.924;-2.388;2022-07-11T08:09:47;4;4;
71872;PMS5003;59745;52.924;-2.388;2022-07-11T08:12:13;3;3;
71872;PMS5003;59745;52.924;-2.388;2022-07-11T08:14:39;2;2;
71872;PMS5003;59745;52.924;-2.388;2022-07-11T08:17:04;6;5;
71872;PMS5003;59745;52.924;-2.388;2022-07-11T08:19:30;5;5;
71872;PMS5003;59745;52.924;-2.388;2022-07-11T08:21:56;4;4;
71872;PMS5003;59745;52.924;-2.388;2022-07-11T08:24:22;3;3;
71872;PMS5003;59745;52.924;-2.388;2022-07-11T08:26:47;4;2;
71872;PMS5003;59745;52.924;-2.388;2022-07-11T08:29:13;4;4;
71872;PMS5003;59745;52.924;-2.388;2022-07-11T08:31:39;3;3;
71872;PMS5003;59745;52.924;-2.388;2022-07-11T08:34:04;2;2;
71872;PMS5003;59745;52.924;-2.388;2022-07-11T08:36:30;2;2;
71872;PMS5003;59745;52.924;-2.388;2022-07-11T08:38:56;2;2;
71872;PMS5003;59745;52.924;-2.388;2022-07-11T08:41:22;3;3;
71872;PMS5003;59745;52.924;-2.388;2022-07-11T08:43:47;3;3;
71872;PMS5003;59745;52.924;-2.388;2022-07-11T08:46:13;2;2;
71872;PMS5003;59745;52.924;-2.388;2022-07-11T08:48:39;3;3;
71872;PMS5003;59745;52.924;-2.388;2022-07-11T08:51:05;2;2;
71872;PMS5003;59745;52.924;-2.388;2022-07-11T08:53:30;3;3;
71872;PMS5003;59745;52.924;-2.388;2022-07-11T08:55:56;3;2;
71872;PMS5003;59745;52.924;-2.388;2022-07-11T08:58:22;2;2;
71872;PMS5003;59745;52.924;-2.388;2022-07-11T09:00:47;2;2;
71872;PMS5003;59745;52.924;-2.388;2022-07-11T09:03:14;2;2;
71872;PMS5003;59745;52.924;-2.388;2022-07-11T09:05:39;0;0;
71872;PMS5003;59745;52.924;-2.388;2022-07-11T09:08:04;2;1;
71872;PMS5003;59745;52.924;-2.388;2022-07-11T09:10:30;1;1;
71872;PMS5003;59745;52.924;-2.388;2022-07-11T09:12:57;1;1;
71872;PMS5003;59745;52.924;-2.388;2022-07-11T09:17:48;2;2;
71872;PMS5003;59745;52.924;-2.388;2022-07-11T09:20:13;1;1;
71872;PMS5003;59745;52.924;-2.388;2022-07-11T09:22:39;3;3;
71872;PMS5003;59745;52.924;-2.388;2022-07-11T09:25:05;3;3;
71872;PMS5003;59745;52.924;-2.388;2022-07-11T09:29:57;3;2;
71872;PMS5003;59745;52.924;-2.388;2022-07-11T09:32:22;2;2;
71872;PMS5003;59745;52.924;-2.388;2022-07-11T09:37:13;1;1;
71872;PMS5003;59745;52.924;-2.388;2022-07-11T09:39:39;3;3;
71872;PMS5003;59745;52.924;-2.388;2022-07-11T09:42:05;2;2;
71872;PMS5003;59745;52.924;-2.388;2022-07-11T09:44:30;1;1;
71872;PMS5003;59745;52.924;-2.388;2022-07-11T09:46:56;2;2;
71872;PMS5003;59745;52.924;-2.388;2022-07-11T09:51:47;2;2;
71872;PMS5003;59745;52.924;-2.388;2022-07-11T09:54:13;3;3;
71872;PMS5003;59745;52.924;-2.388;2022-07-11T09:56:40;3;3;
71872;PMS5003;59745;52.924;-2.388;2022-07-11T09:59:05;2;2;
71872;PMS5003;59745;52.924;-2.388;2022-07-11T10:01:31;5;5;
71872;PMS5003;59745;52.924;-2.388;2022-07-11T10:03:56;3;3;
71872;PMS5003;59745;52.924;-2.388;2022-07-11T10:06:22;3;2;
71872;PMS5003;59745;52.924;-2.388;2022-07-11T10:08:48;3;3;
71872;PMS5003;59745;52.924;-2.388;2022-07-11T10:11:13;3;2;
71872;PMS5003;59745;52.924;-2.388;2022-07-11T10:13:39;2;2;
71872;PMS5003;59745;52.924;-2.388;2022-07-11T10:16:07;3;3;
71872;PMS5003;59745;52.924;-2.388;2022-07-11T10:18:31;5;1;
71872;PMS5003;59745;52.924;-2.388;2022-07-11T10:20:58;3;3;
71872;PMS5003;59745;52.924;-2.388;2022-07-11T10:23:23;4;4;
71872;PMS5003;59745;52.924;-2.388;2022-07-11T10:25:49;2;2;
71872;PMS5003;59745;52.924;-2.388;2022-07-11T10:28:17;5;4;
71872;PMS5003;59745;52.924;-2.388;2022-07-11T10:30:39;3;3;
71872;PMS5003;59745;52.924;-2.388;2022-07-11T10:33:05;1;1;
71872;PMS5003;59745;52.924;-2.388;2022-07-11T10:35:30;4;4;
71872;PMS5003;59745;52.924;-2.388;2022-07-11T10:37:56;3;3;
71872;PMS5003;59745;52.924;-2.388;2022-07-11T10:42:47;4;4;
71872;PMS5003;59745;52.924;-2.388;2022-07-11T10:45:13;3;3;
71872;PMS5003;59745;52.924;-2.388;2022-07-11T10:47:39;4;4;
71872;PMS5003;59745;52.924;-2.388;2022-07-11T10:50:07;4;4;
71872;PMS5003;59745;52.924;-2.388;2022-07-11T10:52:30;4;4;
71872;PMS5003;59745;52.924;-2.388;2022-07-11T10:55:00;4;4;
71872;PMS5003;59745;52.924;-2.388;2022-07-11T10:57:22;4;4;
71872;PMS5003;59745;52.924;-2.388;2022-07-11T10:59:56;4;4;
71872;PMS5003;59745;52.924;-2.388;2022-07-11T11:02:13;5;4;
71872;PMS5003;59745;52.924;-2.388;2022-07-11T11:04:41;5;5;
71872;PMS5003;59745;52.924;-2.388;2022-07-11T11:07:05;3;3;
71872;PMS5003;59745;52.924;-2.388;2022-07-11T11:11:56;4;4;
71872;PMS5003;59745;52.924;-2.388;2022-07-11T11:14:22;4;4;
71872;PMS5003;59745;52.924;-2.388;2022-07-11T11:16:48;4;4;
71872;PMS5003;59745;52.924;-2.388;2022-07-11T11:21:39;4;4;
71872;PMS5003;59745;52.924;-2.388;2022-07-11T11:24:06;3;3;
71872;PMS5003;59745;52.924;-2.388;2022-07-11T11:28:56;4;4;
71872;PMS5003;59745;52.924;-2.388;2022-07-11T11:31:22;4;4;
71872;PMS5003;59745;52.924;-2.388;2022-07-11T11:33:48;3;3;
71872;PMS5003;59745;52.924;-2.388;2022-07-11T11:36:15;3;3;
71872;PMS5003;59745;52.924;-2.388;2022-07-11T11:38:40;3;3;
71872;PMS5003;59745;52.924;-2.388;2022-07-11T11:41:05;3;3;
71872;PMS5003;59745;52.924;-2.388;2022-07-11T11:43:31;4;4;
71872;PMS5003;59745;52.924;-2.388;2022-07-11T11:45:56;3;3;
71872;PMS5003;59745;52.924;-2.388;2022-07-11T11:48:26;3;3;
71872;PMS5003;59745;52.924;-2.388;2022-07-11T11:50:48;4;3;
71872;PMS5003;59745;52.924;-2.388;2022-07-11T11:53:13;6;6;
71872;PMS5003;59745;52.924;-2.388;2022-07-11T11:55:39;3;3;
71872;PMS5003;59745;52.924;-2.388;2022-07-11T11:58:05;2;2;
71872;PMS5003;59745;52.924;-2.388;2022-07-11T12:00:30;4;4;
71872;PMS5003;59745;52.924;-2.388;2022-07-11T12:02:56;3;3;
71872;PMS5003;59745;52.924;-2.388;2022-07-11T12:05:22;3;3;
71872;PMS5003;59745;52.924;-2.388;2022-07-11T12:07:48;2;2;
71872;PMS5003;59745;52.924;-2.388;2022-07-11T12:10:13;4;4;
71872;PMS5003;59745;52.924;-2.388;2022-07-11T12:12:39;4;4;
71872;PMS5003;59745;52.924;-2.388;2022-07-11T12:15:05;2;2;
71872;PMS5003;59745;52.924;-2.388;2022-07-11T12:17:30;3;3;
71872;PMS5003;59745;52.924;-2.388;2022-07-11T12:19:56;4;4;
71872;PMS5003;59745;52.924;-2.388;2022-07-11T12:22:22;4;4;
71872;PMS5003;59745;52.924;-2.388;2022-07-11T12:24:48;6;5;
71872;PMS5003;59745;52.924;-2.388;2022-07-11T12:27:16;3;3;
71872;PMS5003;59745;52.924;-2.388;2022-07-11T12:29:39;4;4;
71872;PMS5003;59745;52.924;-2.388;2022-07-11T12:37:01;4;3;
71872;PMS5003;59745;52.924;-2.388;2022-07-11T12:39:22;4;4;
71872;PMS5003;59745;52.924;-2.388;2022-07-11T12:41:48;3;3;
71872;PMS5003;59745;52.924;-2.388;2022-07-11T12:44:13;2;2;
71872;PMS5003;59745;52.924;-2.388;2022-07-11T12:46:39;3;3;
71872;PMS5003;59745;52.924;-2.388;2022-07-11T12:49:06;3;3;
71872;PMS5003;59745;52.924;-2.388;2022-07-11T12:51:31;2;2;
71872;PMS5003;59745;52.924;-2.388;2022-07-11T12:53:59;3;3;
71872;PMS5003;59745;52.924;-2.388;2022-07-11T12:56:22;3;2;
71872;PMS5003;59745;52.924;-2.388;2022-07-11T12:58:48;3;3;
71872;PMS5003;59745;52.924;-2.388;2022-07-11T13:01:14;4;4;
71872;PMS5003;59745;52.924;-2.388;2022-07-11T13:03:39;2;2;
71872;PMS5003;59745;52.924;-2.388;2022-07-11T13:06:05;2;2;
71872;PMS5003;59745;52.924;-2.388;2022-07-11T13:08:31;3;3;
71872;PMS5003;59745;52.924;-2.388;2022-07-11T13:10:57;1;1;
71872;PMS5003;59745;52.924;-2.388;2022-07-11T13:13:22;2;2;
71872;PMS5003;59745;52.924;-2.388;2022-07-11T13:15:48;2;2;
71872;PMS5003;59745;52.924;-2.388;2022-07-11T13:18:14;1;1;
71872;PMS5003;59745;52.924;-2.388;2022-07-11T13:20:40;2;2;
71872;PMS5003;59745;52.924;-2.388;2022-07-11T13:23:06;1;1;
71872;PMS5003;59745;52.924;-2.388;2022-07-11T13:25:32;2;2;
71872;PMS5003;59745;52.924;-2.388;2022-07-11T13:27:57;2;2;
71872;PMS5003;59745;52.924;-2.388;2022-07-11T13:30:23;1;1;
71872;PMS5003;59745;52.924;-2.388;2022-07-11T13:32:50;3;2;
71872;PMS5003;59745;52.924;-2.388;2022-07-11T13:35:14;4;4;
71872;PMS5003;59745;52.924;-2.388;2022-07-11T13:37:40;3;3;
71872;PMS5003;59745;52.924;-2.388;2022-07-11T13:40:06;1;1;
71872;PMS5003;59745;52.924;-2.388;2022-07-11T13:42:31;1;1;
71872;PMS5003;59745;52.924;-2.388;2022-07-11T13:44:57;3;2;
71872;PMS5003;59745;52.924;-2.388;2022-07-11T13:47:23;3;3;
71872;PMS5003;59745;52.924;-2.388;2022-07-11T13:49:49;3;3;
71872;PMS5003;59745;52.924;-2.388;2022-07-11T13:52:14;1;1;
71872;PMS5003;59745;52.924;-2.388;2022-07-11T13:54:40;2;2;
71872;PMS5003;59745;52.924;-2.388;2022-07-11T13:57:06;1;1;
71872;PMS5003;59745;52.924;-2.388;2022-07-11T13:59:31;2;2;
71872;PMS5003;59745;52.924;-2.388;2022-07-11T14:01:57;1;1;
71872;PMS5003;59745;52.924;-2.388;2022-07-11T14:04:23;2;2;
71872;PMS5003;59745;52.924;-2.388;2022-07-11T14:06:49;3;3;
71872;PMS5003;59745;52.924;-2.388;2022-07-11T14:09:14;3;3;
71872;PMS5003;59745;52.924;-2.388;2022-07-11T14:11:40;3;2;
71872;PMS5003;59745;52.924;-2.388;2022-07-11T14:14:06;5;4;
71872;PMS5003;59745;52.924;-2.388;2022-07-11T14:16:32;4;4;
71872;PMS5003;59745;52.924;-2.388;2022-07-11T14:18:57;1;1;
71872;PMS5003;59745;52.924;-2.388;2022-07-11T14:21:23;3;3;
71872;PMS5003;59745;52.924;-2.388;2022-07-11T14:23:49;3;3;
71872;PMS5003;59745;52.924;-2.388;2022-07-11T14:26:15;3;3;
71872;PMS5003;59745;52.924;-2.388;2022-07-11T14:28:40;3;3;
71872;PMS5003;59745;52.924;-2.388;2022-07-11T14:31:06;2;2;
71872;PMS5003;59745;52.924;-2.388;2022-07-11T14:33:32;4;4;
71872;PMS5003;59745;52.924;-2.388;2022-07-11T14:35:58;3;3;
71872;PMS5003;59745;52.924;-2.388;2022-07-11T14:38:23;2;2;
71872;PMS5003;59745;52.924;-2.388;2022-07-11T14:40:49;3;3;
71872;PMS5003;59745;52.924;-2.388;2022-07-11T14:43:15;4;4;
71872;PMS5003;59745;52.924;-2.388;2022-07-11T14:45:41;4;4;
71872;PMS5003;59745;52.924;-2.388;2022-07-11T14:48:06;5;4;
71872;PMS5003;59745;52.924;-2.388;2022-07-11T14:50:32;4;3;
71872;PMS5003;59745;52.924;-2.388;2022-07-11T14:52:58;2;2;
71872;PMS5003;59745;52.924;-2.388;2022-07-11T14:55:24;3;3;
71872;PMS5003;59745;52.924;-2.388;2022-07-11T14:57:49;6;5;
71872;PMS5003;59745;52.924;-2.388;2022-07-11T15:00:15;3;3;
71872;PMS5003;59745;52.924;-2.388;2022-07-11T15:02:41;3;3;
71872;PMS5003;59745;52.924;-2.388;2022-07-11T15:05:07;5;4;
71872;PMS5003;59745;52.924;-2.388;2022-07-11T15:07:32;3;3;
71872;PMS5003;59745;52.924;-2.388;2022-07-11T15:09:58;3;3;
71872;PMS5003;59745;52.924;-2.388;2022-07-11T15:12:24;4;4;
71872;PMS5003;59745;52.924;-2.388;2022-07-11T15:14:50;4;4;
71872;PMS5003;59745;52.924;-2.388;2022-07-11T15:17:16;3;3;
71872;PMS5003;59745;52.924;-2.388;2022-07-11T15:19:41;4;4;
71872;PMS5003;59745;52.924;-2.388;2022-07-11T15:22:07;3;3;
71872;PMS5003;59745;52.924;-2.388;2022-07-11T15:24:33;4;3;
71872;PMS5003;59745;52.924;-2.388;2022-07-11T15:26:58;3;3;
71872;PMS5003;59745;52.924;-2.388;2022-07-11T15:29:24;3;3;
71872;PMS5003;59745;52.924;-2.388;2022-07-11T15:31:50;3;3;
71872;PMS5003;59745;52.924;-2.388;2022-07-11T15:34:16;3;3;
71872;PMS5003;59745;52.924;-2.388;2022-07-11T15:36:42;3;2;
71872;PMS5003;59745;52.924;-2.388;2022-07-11T15:39:07;3;3;
71872;PMS5003;59745;52.924;-2.388;2022-07-11T15:41:33;3;3;
71872;PMS5003;59745;52.924;-2.388;2022-07-11T15:43:59;5;5;
71872;PMS5003;59745;52.924;-2.388;2022-07-11T15:46:25;2;2;
71872;PMS5003;59745;52.924;-2.388;2022-07-11T15:48:51;3;3;
71872;PMS5003;59745;52.924;-2.388;2022-07-11T15:51:16;2;2;
71872;PMS5003;59745;52.924;-2.388;2022-07-11T15:53:42;4;4;
71872;PMS5003;59745;52.924;-2.388;2022-07-11T15:56:08;4;4;
71872;PMS5003;59745;52.924;-2.388;2022-07-11T15:58:33;3;3;
71872;PMS5003;59745;52.924;-2.388;2022-07-11T16:00:59;3;3;
71872;PMS5003;59745;52.924;-2.388;2022-07-11T16:03:25;3;3;
71872;PMS5003;59745;52.924;-2.388;2022-07-11T16:05:51;3;3;
71872;PMS5003;59745;52.924;-2.388;2022-07-11T16:08:17;4;4;
71872;PMS5003;59745;52.924;-2.388;2022-07-11T16:10:42;2;2;
71872;PMS5003;59745;52.924;-2.388;2022-07-11T16:13:08;4;4;
71872;PMS5003;59745;52.924;-2.388;2022-07-11T16:15:34;4;4;
71872;PMS5003;59745;52.924;-2.388;2022-07-11T16:18:00;2;2;
71872;PMS5003;59745;52.924;-2.388;2022-07-11T16:20:25;3;3;
71872;PMS5003;59745;52.924;-2.388;2022-07-11T16:22:51;4;4;
71872;PMS5003;59745;52.924;-2.388;2022-07-11T16:25:17;5;5;
71872;PMS5003;59745;52.924;-2.388;2022-07-11T16:27:43;4;4;
71872;PMS5003;59745;52.924;-2.388;2022-07-11T16:30:09;4;4;
71872;PMS5003;59745;52.924;-2.388;2022-07-11T16:32:34;4;4;
71872;PMS5003;59745;52.924;-2.388;2022-07-11T16:35:00;4;3;
71872;PMS5003;59745;52.924;-2.388;2022-07-11T16:37:26;6;5;
71872;PMS5003;59745;52.924;-2.388;2022-07-11T16:39:52;6;5;
71872;PMS5003;59745;52.924;-2.388;2022-07-11T16:42:17;5;5;
71872;PMS5003;59745;52.924;-2.388;2022-07-11T16:44:43;8;6;
71872;PMS5003;59745;52.924;-2.388;2022-07-11T16:47:09;4;4;